sensor_id;sensor_type;location;lat;lon;timestamp;temperature;humidity
10883;DHT22;5494;51.796;10.952;2023-07-09T00:02:12;20.90;99.90
10883;DHT22;5494;51.796;10.952;2023-07-09T00:04:41;20.80;99.90
10883;DHT22;5494;51.796;10.952;2023-07-09T00:07:17;20.80;99.90
10883;DHT22;5494;51.796;10.952;2023-07-09T00:09:49;20.80;99.90
10883;DHT22;5494;51.796;10.952;2023-07-09T00:12:18;20.80;99.90
10883;DHT22;5494;51.796;10.952;2023-07-09T00:14:48;20.70;99.90
10883;DHT22;5494;51.796;10.952;2023-07-09T00:17:25;20.60;99.90
10883;DHT22;5494;51.796;10.952;2023-07-09T00:19:55;20.60;99.90
10883;DHT22;5494;51.796;10.952;2023-07-09T00:22:23;20.50;99.90
10883;DHT22;5494;51.796;10.952;2023-07-09T00:24:53;20.50;99.90
10883;DHT22;5494;51.796;10.952;2023-07-09T00:27:28;20.50;99.90
10883;DHT22;5494;51.796;10.952;2023-07-09T00:29:57;20.40;99.90
10883;DHT22;5494;51.796;10.952;2023-07-09T00:32:27;20.40;99.90
10883;DHT22;5494;51.796;10.952;2023-07-09T00:34:55;20.40;99.90
10883;DHT22;5494;51.796;10.952;2023-07-09T00:37:24;20.30;99.90
10883;DHT22;5494;51.796;10.952;2023-07-09T00:39:57;20.30;99.90
10883;DHT22;5494;51.796;10.952;2023-07-09T00:42:26;20.30;99.90
10883;DHT22;5494;51.796;10.952;2023-07-09T00:44:54;20.30;99.90
10883;DHT22;5494;51.796;10.952;2023-07-09T00:47:30;20.30;99.90
10883;DHT22;5494;51.796;10.952;2023-07-09T00:50:14;20.20;99.90
10883;DHT22;5494;51.796;10.952;2023-07-09T00:52:52;20.20;99.90
10883;DHT22;5494;51.796;10.952;2023-07-09T00:55:28;20.20;99.90
10883;DHT22;5494;51.796;10.952;2023-07-09T00:58:03;20.20;99.90
10883;DHT22;5494;51.796;10.952;2023-07-09T01:00:37;20.20;99.90
10883;DHT22;5494;51.796;10.952;2023-07-09T01:03:21;20.10;99.90
10883;DHT22;5494;51.796;10.952;2023-07-09T01:05:54;20.10;99.90
10883;DHT22;5494;51.796;10.952;2023-07-09T01:08:22;20.10;99.90
10883;DHT22;5494;51.796;10.952;2023-07-09T01:10:50;20.20;99.90
10883;DHT22;5494;51.796;10.952;2023-07-09T01:13:18;20.20;99.90
10883;DHT22;5494;51.796;10.952;2023-07-09T01:15:50;20.20;99.90
10883;DHT22;5494;51.796;10.952;2023-07-09T01:18:19;20.20;99.90
10883;DHT22;5494;51.796;10.952;2023-07-09T01:20:47;20.20;99.90
10883;DHT22;5494;51.796;10.952;2023-07-09T01:23:17;20.20;99.90
10883;DHT22;5494;51.796;10.952;2023-07-09T01:25:47;20.10;99.90
10883;DHT22;5494;51.796;10.952;2023-07-09T01:28:19;20.10;99.90
10883;DHT22;5494;51.796;10.952;2023-07-09T01:30:50;20.10;99.90
10883;DHT22;5494;51.796;10.952;2023-07-09T01:33:22;20.10;99.90
10883;DHT22;5494;51.796;10.952;2023-07-09T01:35:50;20.10;99.90
10883;DHT22;5494;51.796;10.952;2023-07-09T01:38:22;20.10;99.90
10883;DHT22;5494;51.796;10.952;2023-07-09T01:40:50;20.00;99.90
10883;DHT22;5494;51.796;10.952;2023-07-09T01:43:18;19.90;99.90
10883;DHT22;5494;51.796;10.952;2023-07-09T01:45:46;19.90;99.90
10883;DHT22;5494;51.796;10.952;2023-07-09T01:48:17;19.90;99.90
10883;DHT22;5494;51.796;10.952;2023-07-09T01:50:47;19.80;99.90
10883;DHT22;5494;51.796;10.952;2023-07-09T01:53:18;19.80;99.90
10883;DHT22;5494;51.796;10.952;2023-07-09T01:55:52;19.80;99.90
10883;DHT22;5494;51.796;10.952;2023-07-09T01:58:22;19.80;99.90
10883;DHT22;5494;51.796;10.952;2023-07-09T02:00:51;19.70;99.90
10883;DHT22;5494;51.796;10.952;2023-07-09T02:03:19;19.60;99.90
10883;DHT22;5494;51.796;10.952;2023-07-09T02:05:47;19.60;99.90
10883;DHT22;5494;51.796;10.952;2023-07-09T02:08:18;19.50;99.90
10883;DHT22;5494;51.796;10.952;2023-07-09T02:10:48;19.60;99.90
10883;DHT22;5494;51.796;10.952;2023-07-09T02:13:18;19.50;99.90
10883;DHT22;5494;51.796;10.952;2023-07-09T02:15:46;19.50;99.90
10883;DHT22;5494;51.796;10.952;2023-07-09T02:18:15;19.40;99.90
10883;DHT22;5494;51.796;10.952;2023-07-09T02:20:45;19.40;99.90
10883;DHT22;5494;51.796;10.952;2023-07-09T02:23:13;19.40;99.90
10883;DHT22;5494;51.796;10.952;2023-07-09T02:25:41;19.40;99.90
10883;DHT22;5494;51.796;10.952;2023-07-09T02:28:09;19.40;99.90
10883;DHT22;5494;51.796;10.952;2023-07-09T02:30:38;19.40;99.90
10883;DHT22;5494;51.796;10.952;2023-07-09T02:33:07;19.40;99.90
10883;DHT22;5494;51.796;10.952;2023-07-09T02:35:35;19.30;99.90
10883;DHT22;5494;51.796;10.952;2023-07-09T02:38:03;19.30;99.90
10883;DHT22;5494;51.796;10.952;2023-07-09T02:40:32;19.20;99.90
10883;DHT22;5494;51.796;10.952;2023-07-09T02:43:00;19.30;99.90
10883;DHT22;5494;51.796;10.952;2023-07-09T02:45:28;19.30;99.90
10883;DHT22;5494;51.796;10.952;2023-07-09T02:47:58;19.30;99.90
10883;DHT22;5494;51.796;10.952;2023-07-09T02:50:28;19.40;99.90
10883;DHT22;5494;51.796;10.952;2023-07-09T02:52:56;19.30;99.90
10883;DHT22;5494;51.796;10.952;2023-07-09T02:55:24;19.20;99.90
10883;DHT22;5494;51.796;10.952;2023-07-09T02:57:52;19.20;99.90
10883;DHT22;5494;51.796;10.952;2023-07-09T03:00:21;19.20;99.90
10883;DHT22;5494;51.796;10.952;2023-07-09T03:02:49;19.20;99.90
10883;DHT22;5494;51.796;10.952;2023-07-09T03:05:18;19.30;99.90
10883;DHT22;5494;51.796;10.952;2023-07-09T03:07:46;19.30;99.90
10883;DHT22;5494;51.796;10.952;2023-07-09T03:10:15;19.30;99.90
10883;DHT22;5494;51.796;10.952;2023-07-09T03:12:43;19.30;99.90
10883;DHT22;5494;51.796;10.952;2023-07-09T03:15:12;19.30;99.90
10883;DHT22;5494;51.796;10.952;2023-07-09T03:17:40;19.30;99.90
10883;DHT22;5494;51.796;10.952;2023-07-09T03:20:09;19.40;99.90
10883;DHT22;5494;51.796;10.952;2023-07-09T03:22:39;19.30;99.90
10883;DHT22;5494;51.796;10.952;2023-07-09T03:25:07;19.40;99.90
10883;DHT22;5494;51.796;10.952;2023-07-09T03:27:35;19.50;99.90
10883;DHT22;5494;51.796;10.952;2023-07-09T03:30:04;19.60;99.90
10883;DHT22;5494;51.796;10.952;2023-07-09T03:32:33;19.60;99.90
10883;DHT22;5494;51.796;10.952;2023-07-09T03:35:01;19.60;99.90
10883;DHT22;5494;51.796;10.952;2023-07-09T03:37:29;19.60;99.90
10883;DHT22;5494;51.796;10.952;2023-07-09T03:39:58;19.60;99.90
10883;DHT22;5494;51.796;10.952;2023-07-09T03:42:26;19.70;99.90
10883;DHT22;5494;51.796;10.952;2023-07-09T03:44:54;19.70;99.90
10883;DHT22;5494;51.796;10.952;2023-07-09T03:47:23;19.70;99.90
10883;DHT22;5494;51.796;10.952;2023-07-09T03:49:51;19.60;99.90
10883;DHT22;5494;51.796;10.952;2023-07-09T03:52:19;19.70;99.90
10883;DHT22;5494;51.796;10.952;2023-07-09T03:54:47;19.80;99.90
10883;DHT22;5494;51.796;10.952;2023-07-09T03:57:16;19.90;99.90
10883;DHT22;5494;51.796;10.952;2023-07-09T03:59:44;20.10;99.90
10883;DHT22;5494;51.796;10.952;2023-07-09T04:02:12;20.20;99.90
10883;DHT22;5494;51.796;10.952;2023-07-09T04:04:40;20.20;99.90
10883;DHT22;5494;51.796;10.952;2023-07-09T04:07:08;20.20;99.90
10883;DHT22;5494;51.796;10.952;2023-07-09T04:09:36;20.30;99.90
10883;DHT22;5494;51.796;10.952;2023-07-09T04:12:05;20.40;99.90
10883;DHT22;5494;51.796;10.952;2023-07-09T04:14:35;20.50;99.90
10883;DHT22;5494;51.796;10.952;2023-07-09T04:17:04;20.80;99.90
10883;DHT22;5494;51.796;10.952;2023-07-09T04:19:32;21.20;99.90
10883;DHT22;5494;51.796;10.952;2023-07-09T04:22:00;21.60;99.90
10883;DHT22;5494;51.796;10.952;2023-07-09T04:24:30;22.00;99.90
10883;DHT22;5494;51.796;10.952;2023-07-09T04:26:59;22.40;99.90
10883;DHT22;5494;51.796;10.952;2023-07-09T04:29:29;22.50;99.90
10883;DHT22;5494;51.796;10.952;2023-07-09T04:32:02;22.90;99.90
10883;DHT22;5494;51.796;10.952;2023-07-09T04:34:30;23.10;99.90
10883;DHT22;5494;51.796;10.952;2023-07-09T04:36:58;23.40;99.90
10883;DHT22;5494;51.796;10.952;2023-07-09T04:39:26;23.60;99.90
10883;DHT22;5494;51.796;10.952;2023-07-09T04:41:55;23.90;99.10
10883;DHT22;5494;51.796;10.952;2023-07-09T04:44:23;24.10;97.40
10883;DHT22;5494;51.796;10.952;2023-07-09T04:46:52;24.40;97.20
10883;DHT22;5494;51.796;10.952;2023-07-09T04:49:21;24.40;97.50
10883;DHT22;5494;51.796;10.952;2023-07-09T04:51:49;24.10;97.60
10883;DHT22;5494;51.796;10.952;2023-07-09T04:54:17;24.20;97.70
10883;DHT22;5494;51.796;10.952;2023-07-09T04:56:45;24.40;97.80
10883;DHT22;5494;51.796;10.952;2023-07-09T04:59:14;24.60;97.60
10883;DHT22;5494;51.796;10.952;2023-07-09T05:01:45;24.90;97.30
10883;DHT22;5494;51.796;10.952;2023-07-09T05:04:13;25.10;97.20
10883;DHT22;5494;51.796;10.952;2023-07-09T05:06:43;25.40;96.50
10883;DHT22;5494;51.796;10.952;2023-07-09T05:09:11;25.90;95.90
10883;DHT22;5494;51.796;10.952;2023-07-09T05:11:39;26.10;94.80
10883;DHT22;5494;51.796;10.952;2023-07-09T05:14:06;26.10;95.60
10883;DHT22;5494;51.796;10.952;2023-07-09T05:16:34;26.40;93.30
10883;DHT22;5494;51.796;10.952;2023-07-09T05:19:03;26.80;92.40
10883;DHT22;5494;51.796;10.952;2023-07-09T05:21:31;27.40;91.60
10883;DHT22;5494;51.796;10.952;2023-07-09T05:24:00;28.00;87.70
10883;DHT22;5494;51.796;10.952;2023-07-09T05:26:28;28.50;86.60
10883;DHT22;5494;51.796;10.952;2023-07-09T05:28:56;29.40;80.80
10883;DHT22;5494;51.796;10.952;2023-07-09T05:31:24;30.20;77.60
10883;DHT22;5494;51.796;10.952;2023-07-09T05:33:53;30.90;70.70
10883;DHT22;5494;51.796;10.952;2023-07-09T05:36:21;31.20;67.70
10883;DHT22;5494;51.796;10.952;2023-07-09T05:38:48;32.10;63.00
10883;DHT22;5494;51.796;10.952;2023-07-09T05:41:18;32.60;58.40
10883;DHT22;5494;51.796;10.952;2023-07-09T05:43:49;33.10;54.60
10883;DHT22;5494;51.796;10.952;2023-07-09T05:46:18;33.60;51.80
10883;DHT22;5494;51.796;10.952;2023-07-09T05:48:49;33.90;50.40
10883;DHT22;5494;51.796;10.952;2023-07-09T05:51:17;34.00;48.30
10883;DHT22;5494;51.796;10.952;2023-07-09T05:53:45;34.30;47.40
10883;DHT22;5494;51.796;10.952;2023-07-09T05:56:13;34.00;45.20
10883;DHT22;5494;51.796;10.952;2023-07-09T05:58:42;34.20;45.80
10883;DHT22;5494;51.796;10.952;2023-07-09T06:01:10;34.30;43.30
10883;DHT22;5494;51.796;10.952;2023-07-09T06:03:39;34.30;43.30
10883;DHT22;5494;51.796;10.952;2023-07-09T06:06:07;34.70;42.80
10883;DHT22;5494;51.796;10.952;2023-07-09T06:08:35;34.30;43.80
10883;DHT22;5494;51.796;10.952;2023-07-09T06:11:06;33.90;44.50
10883;DHT22;5494;51.796;10.952;2023-07-09T06:13:34;33.80;44.50
10883;DHT22;5494;51.796;10.952;2023-07-09T06:16:04;34.60;44.40
10883;DHT22;5494;51.796;10.952;2023-07-09T06:18:32;35.30;42.60
10883;DHT22;5494;51.796;10.952;2023-07-09T06:21:01;35.50;40.80
10883;DHT22;5494;51.796;10.952;2023-07-09T06:23:30;35.80;40.60
10883;DHT22;5494;51.796;10.952;2023-07-09T06:25:59;36.00;39.90
10883;DHT22;5494;51.796;10.952;2023-07-09T06:28:28;36.60;38.60
10883;DHT22;5494;51.796;10.952;2023-07-09T06:30:56;36.90;35.90
10883;DHT22;5494;51.796;10.952;2023-07-09T06:33:27;36.60;35.80
10883;DHT22;5494;51.796;10.952;2023-07-09T06:35:57;36.20;37.40
10883;DHT22;5494;51.796;10.952;2023-07-09T06:38:27;35.60;36.80
10883;DHT22;5494;51.796;10.952;2023-07-09T06:40:57;35.70;37.70
10883;DHT22;5494;51.796;10.952;2023-07-09T06:43:25;36.10;36.60
10883;DHT22;5494;51.796;10.952;2023-07-09T06:45:55;35.40;36.30
10883;DHT22;5494;51.796;10.952;2023-07-09T06:48:28;34.80;38.50
10883;DHT22;5494;51.796;10.952;2023-07-09T06:50:57;35.10;40.00
10883;DHT22;5494;51.796;10.952;2023-07-09T06:53:27;36.00;36.70
10883;DHT22;5494;51.796;10.952;2023-07-09T06:55:56;35.50;37.90
10883;DHT22;5494;51.796;10.952;2023-07-09T06:58:26;35.90;35.10
10883;DHT22;5494;51.796;10.952;2023-07-09T07:00:55;36.10;35.10
10883;DHT22;5494;51.796;10.952;2023-07-09T07:03:24;36.20;34.40
10883;DHT22;5494;51.796;10.952;2023-07-09T07:05:53;36.40;33.10
10883;DHT22;5494;51.796;10.952;2023-07-09T07:08:23;36.00;31.70
10883;DHT22;5494;51.796;10.952;2023-07-09T07:10:57;35.30;32.90
10883;DHT22;5494;51.796;10.952;2023-07-09T07:13:29;35.10;35.20
10883;DHT22;5494;51.796;10.952;2023-07-09T07:15:57;34.80;36.80
10883;DHT22;5494;51.796;10.952;2023-07-09T07:18:27;35.00;36.10
10883;DHT22;5494;51.796;10.952;2023-07-09T07:20:56;35.40;35.40
10883;DHT22;5494;51.796;10.952;2023-07-09T07:23:25;35.00;34.50
10883;DHT22;5494;51.796;10.952;2023-07-09T07:25:54;34.60;34.60
10883;DHT22;5494;51.796;10.952;2023-07-09T07:28:22;34.00;36.60
10883;DHT22;5494;51.796;10.952;2023-07-09T07:30:58;33.50;39.50
10883;DHT22;5494;51.796;10.952;2023-07-09T07:33:29;33.10;39.20
10883;DHT22;5494;51.796;10.952;2023-07-09T07:35:57;33.10;41.70
10883;DHT22;5494;51.796;10.952;2023-07-09T07:38:28;32.80;41.90
10883;DHT22;5494;51.796;10.952;2023-07-09T07:40:56;32.90;40.60
10883;DHT22;5494;51.796;10.952;2023-07-09T07:43:23;32.80;41.20
10883;DHT22;5494;51.796;10.952;2023-07-09T07:45:51;32.70;41.60
10883;DHT22;5494;51.796;10.952;2023-07-09T07:48:20;32.50;41.90
10883;DHT22;5494;51.796;10.952;2023-07-09T07:50:49;32.10;43.10
10883;DHT22;5494;51.796;10.952;2023-07-09T07:53:17;31.80;44.90
10883;DHT22;5494;51.796;10.952;2023-07-09T07:55:45;31.60;46.10
10883;DHT22;5494;51.796;10.952;2023-07-09T07:58:13;31.60;49.80
10883;DHT22;5494;51.796;10.952;2023-07-09T08:00:41;32.00;46.60
10883;DHT22;5494;51.796;10.952;2023-07-09T08:03:09;32.10;48.00
10883;DHT22;5494;51.796;10.952;2023-07-09T08:05:38;32.20;47.60
10883;DHT22;5494;51.796;10.952;2023-07-09T08:08:07;32.20;47.60
10883;DHT22;5494;51.796;10.952;2023-07-09T08:10:35;32.20;50.00
10883;DHT22;5494;51.796;10.952;2023-07-09T08:13:03;32.40;48.00
10883;DHT22;5494;51.796;10.952;2023-07-09T08:15:31;32.30;50.20
10883;DHT22;5494;51.796;10.952;2023-07-09T08:18:01;32.70;48.50
10883;DHT22;5494;51.796;10.952;2023-07-09T08:20:32;33.00;47.00
10883;DHT22;5494;51.796;10.952;2023-07-09T08:23:00;33.00;47.20
10883;DHT22;5494;51.796;10.952;2023-07-09T08:25:30;32.70;45.90
10883;DHT22;5494;51.796;10.952;2023-07-09T08:27:58;32.50;45.90
10883;DHT22;5494;51.796;10.952;2023-07-09T08:30:25;32.40;46.00
10883;DHT22;5494;51.796;10.952;2023-07-09T08:32:53;32.20;45.20
10883;DHT22;5494;51.796;10.952;2023-07-09T08:35:24;31.90;47.40
10883;DHT22;5494;51.796;10.952;2023-07-09T08:38:02;32.10;45.60
10883;DHT22;5494;51.796;10.952;2023-07-09T08:40:38;32.20;45.10
10883;DHT22;5494;51.796;10.952;2023-07-09T08:43:14;32.70;43.70
10883;DHT22;5494;51.796;10.952;2023-07-09T08:45:57;32.30;45.90
10883;DHT22;5494;51.796;10.952;2023-07-09T08:48:38;32.50;44.00
10883;DHT22;5494;51.796;10.952;2023-07-09T08:51:13;32.60;43.80
10883;DHT22;5494;51.796;10.952;2023-07-09T08:53:53;32.60;44.70
10883;DHT22;5494;51.796;10.952;2023-07-09T08:56:27;32.40;43.80
10883;DHT22;5494;51.796;10.952;2023-07-09T08:59:01;32.30;45.80
10883;DHT22;5494;51.796;10.952;2023-07-09T09:01:34;32.70;46.70
10883;DHT22;5494;51.796;10.952;2023-07-09T09:04:13;32.80;45.00
10883;DHT22;5494;51.796;10.952;2023-07-09T09:06:51;33.10;44.90
10883;DHT22;5494;51.796;10.952;2023-07-09T09:09:29;32.80;45.90
10883;DHT22;5494;51.796;10.952;2023-07-09T09:12:15;33.20;45.90
10883;DHT22;5494;51.796;10.952;2023-07-09T09:14:57;33.60;44.30
10883;DHT22;5494;51.796;10.952;2023-07-09T09:17:27;34.20;42.20
10883;DHT22;5494;51.796;10.952;2023-07-09T09:19:59;34.40;44.50
10883;DHT22;5494;51.796;10.952;2023-07-09T09:22:33;34.60;42.60
10883;DHT22;5494;51.796;10.952;2023-07-09T09:25:18;34.80;40.20
10883;DHT22;5494;51.796;10.952;2023-07-09T09:27:53;35.00;40.30
10883;DHT22;5494;51.796;10.952;2023-07-09T09:30:23;34.70;39.40
10883;DHT22;5494;51.796;10.952;2023-07-09T09:32:54;34.30;40.00
10883;DHT22;5494;51.796;10.952;2023-07-09T09:35:28;34.30;39.50
10883;DHT22;5494;51.796;10.952;2023-07-09T09:37:58;34.50;39.80
10883;DHT22;5494;51.796;10.952;2023-07-09T09:40:29;34.80;37.10
10883;DHT22;5494;51.796;10.952;2023-07-09T09:43:11;35.00;37.30
10883;DHT22;5494;51.796;10.952;2023-07-09T09:45:44;35.30;34.70
10883;DHT22;5494;51.796;10.952;2023-07-09T09:48:18;35.30;33.80
10883;DHT22;5494;51.796;10.952;2023-07-09T09:50:48;35.20;35.00
10883;DHT22;5494;51.796;10.952;2023-07-09T09:53:21;35.10;33.20
10883;DHT22;5494;51.796;10.952;2023-07-09T09:55:52;34.60;34.10
10883;DHT22;5494;51.796;10.952;2023-07-09T09:58:27;33.90;35.60
10883;DHT22;5494;51.796;10.952;2023-07-09T10:00:58;33.50;35.70
10883;DHT22;5494;51.796;10.952;2023-07-09T10:03:35;33.70;36.30
10883;DHT22;5494;51.796;10.952;2023-07-09T10:06:10;34.10;33.90
10883;DHT22;5494;51.796;10.952;2023-07-09T10:08:50;34.10;34.20
10883;DHT22;5494;51.796;10.952;2023-07-09T10:11:29;33.60;35.40
10883;DHT22;5494;51.796;10.952;2023-07-09T10:14:11;34.00;36.00
10883;DHT22;5494;51.796;10.952;2023-07-09T10:16:56;34.10;34.40
10883;DHT22;5494;51.796;10.952;2023-07-09T10:19:35;34.00;35.10
10883;DHT22;5494;51.796;10.952;2023-07-09T10:22:19;34.30;35.40
10883;DHT22;5494;51.796;10.952;2023-07-09T10:25:01;34.00;34.00
10883;DHT22;5494;51.796;10.952;2023-07-09T10:27:41;34.10;32.90
10883;DHT22;5494;51.796;10.952;2023-07-09T10:30:35;34.40;31.50
10883;DHT22;5494;51.796;10.952;2023-07-09T10:33:11;34.20;33.20
10883;DHT22;5494;51.796;10.952;2023-07-09T10:35:48;34.10;32.30
10883;DHT22;5494;51.796;10.952;2023-07-09T10:38:39;34.20;32.10
10883;DHT22;5494;51.796;10.952;2023-07-09T10:41:16;34.20;32.90
10883;DHT22;5494;51.796;10.952;2023-07-09T10:43:57;34.20;33.50
10883;DHT22;5494;51.796;10.952;2023-07-09T10:46:33;33.70;35.50
10883;DHT22;5494;51.796;10.952;2023-07-09T10:49:05;33.20;33.60
10883;DHT22;5494;51.796;10.952;2023-07-09T10:51:41;32.70;34.80
10883;DHT22;5494;51.796;10.952;2023-07-09T10:54:22;32.80;34.10
10883;DHT22;5494;51.796;10.952;2023-07-09T10:57:03;32.80;36.70
10883;DHT22;5494;51.796;10.952;2023-07-09T10:59:40;32.90;33.10
10883;DHT22;5494;51.796;10.952;2023-07-09T11:02:19;33.00;33.10
10883;DHT22;5494;51.796;10.952;2023-07-09T11:04:53;32.80;34.50
10883;DHT22;5494;51.796;10.952;2023-07-09T11:07:27;32.40;35.90
10883;DHT22;5494;51.796;10.952;2023-07-09T11:09:59;32.40;34.60
10883;DHT22;5494;51.796;10.952;2023-07-09T11:12:32;32.30;33.10
10883;DHT22;5494;51.796;10.952;2023-07-09T11:15:06;32.20;32.60
10883;DHT22;5494;51.796;10.952;2023-07-09T11:17:45;32.10;32.20
10883;DHT22;5494;51.796;10.952;2023-07-09T11:20:19;32.10;31.40
10883;DHT22;5494;51.796;10.952;2023-07-09T11:22:54;32.10;32.50
10883;DHT22;5494;51.796;10.952;2023-07-09T11:25:41;31.90;33.40
10883;DHT22;5494;51.796;10.952;2023-07-09T11:28:11;32.10;33.00
10883;DHT22;5494;51.796;10.952;2023-07-09T11:30:47;32.40;32.10
10883;DHT22;5494;51.796;10.952;2023-07-09T11:33:25;32.40;31.00
10883;DHT22;5494;51.796;10.952;2023-07-09T11:36:09;32.30;30.30
10883;DHT22;5494;51.796;10.952;2023-07-09T11:38:41;32.60;29.20
10883;DHT22;5494;51.796;10.952;2023-07-09T11:41:26;32.60;29.80
10883;DHT22;5494;51.796;10.952;2023-07-09T11:44:14;32.40;30.20
10883;DHT22;5494;51.796;10.952;2023-07-09T11:46:52;32.40;29.10
10883;DHT22;5494;51.796;10.952;2023-07-09T11:49:37;32.00;29.80
10883;DHT22;5494;51.796;10.952;2023-07-09T11:52:13;31.90;30.50
10883;DHT22;5494;51.796;10.952;2023-07-09T11:54:45;31.90;31.20
10883;DHT22;5494;51.796;10.952;2023-07-09T11:57:13;32.00;30.50
10883;DHT22;5494;51.796;10.952;2023-07-09T11:59:42;31.90;30.30
10883;DHT22;5494;51.796;10.952;2023-07-09T12:02:16;31.90;30.00
10883;DHT22;5494;51.796;10.952;2023-07-09T12:04:51;32.10;32.70
10883;DHT22;5494;51.796;10.952;2023-07-09T12:07:21;32.10;30.80
10883;DHT22;5494;51.796;10.952;2023-07-09T12:09:52;32.00;30.00
10883;DHT22;5494;51.796;10.952;2023-07-09T12:12:23;31.90;31.10
10883;DHT22;5494;51.796;10.952;2023-07-09T12:14:52;31.90;29.70
10883;DHT22;5494;51.796;10.952;2023-07-09T12:17:23;32.10;31.10
10883;DHT22;5494;51.796;10.952;2023-07-09T12:19:57;32.20;30.80
10883;DHT22;5494;51.796;10.952;2023-07-09T12:22:25;32.10;30.20
10883;DHT22;5494;51.796;10.952;2023-07-09T12:24:53;31.90;32.50
10883;DHT22;5494;51.796;10.952;2023-07-09T12:27:24;31.90;31.60
10883;DHT22;5494;51.796;10.952;2023-07-09T12:29:55;31.90;33.00
10883;DHT22;5494;51.796;10.952;2023-07-09T12:32:24;32.10;31.30
10883;DHT22;5494;51.796;10.952;2023-07-09T12:34:54;32.40;31.00
10883;DHT22;5494;51.796;10.952;2023-07-09T12:37:27;32.60;30.50
10883;DHT22;5494;51.796;10.952;2023-07-09T12:40:00;32.50;30.70
10883;DHT22;5494;51.796;10.952;2023-07-09T12:42:31;32.50;30.70
10883;DHT22;5494;51.796;10.952;2023-07-09T12:45:04;32.60;29.90
10883;DHT22;5494;51.796;10.952;2023-07-09T12:47:38;32.80;29.00
10883;DHT22;5494;51.796;10.952;2023-07-09T12:50:18;32.70;30.00
10883;DHT22;5494;51.796;10.952;2023-07-09T12:52:55;32.60;30.70
10883;DHT22;5494;51.796;10.952;2023-07-09T12:55:26;32.50;30.50
10883;DHT22;5494;51.796;10.952;2023-07-09T12:57:56;32.50;30.00
10883;DHT22;5494;51.796;10.952;2023-07-09T13:00:29;32.50;29.70
10883;DHT22;5494;51.796;10.952;2023-07-09T13:02:59;32.30;29.70
10883;DHT22;5494;51.796;10.952;2023-07-09T13:05:29;32.50;30.50
10883;DHT22;5494;51.796;10.952;2023-07-09T13:07:59;32.60;30.80
10883;DHT22;5494;51.796;10.952;2023-07-09T13:10:29;32.50;29.70
10883;DHT22;5494;51.796;10.952;2023-07-09T13:13:02;32.20;29.80
10883;DHT22;5494;51.796;10.952;2023-07-09T13:15:39;32.50;28.80
10883;DHT22;5494;51.796;10.952;2023-07-09T13:18:12;32.60;29.90
10883;DHT22;5494;51.796;10.952;2023-07-09T13:20:44;32.70;29.40
10883;DHT22;5494;51.796;10.952;2023-07-09T13:23:16;32.60;30.50
10883;DHT22;5494;51.796;10.952;2023-07-09T13:25:46;32.70;28.00
10883;DHT22;5494;51.796;10.952;2023-07-09T13:28:17;32.70;29.50
10883;DHT22;5494;51.796;10.952;2023-07-09T13:30:47;32.80;29.40
10883;DHT22;5494;51.796;10.952;2023-07-09T13:33:23;32.80;28.80
10883;DHT22;5494;51.796;10.952;2023-07-09T13:35:53;32.80;29.60
10883;DHT22;5494;51.796;10.952;2023-07-09T13:38:23;32.80;29.90
10883;DHT22;5494;51.796;10.952;2023-07-09T13:40:54;32.80;29.20
10883;DHT22;5494;51.796;10.952;2023-07-09T13:43:29;32.90;30.00
10883;DHT22;5494;51.796;10.952;2023-07-09T13:46:06;33.00;29.80
10883;DHT22;5494;51.796;10.952;2023-07-09T13:48:37;32.90;28.40
10883;DHT22;5494;51.796;10.952;2023-07-09T13:51:15;32.80;30.00
10883;DHT22;5494;51.796;10.952;2023-07-09T13:53:45;32.90;30.00
10883;DHT22;5494;51.796;10.952;2023-07-09T13:56:16;32.80;28.90
10883;DHT22;5494;51.796;10.952;2023-07-09T13:58:44;32.70;30.00
10883;DHT22;5494;51.796;10.952;2023-07-09T14:01:14;32.80;29.40
10883;DHT22;5494;51.796;10.952;2023-07-09T14:03:44;32.70;28.40
10883;DHT22;5494;51.796;10.952;2023-07-09T14:06:17;32.60;29.20
10883;DHT22;5494;51.796;10.952;2023-07-09T14:08:46;32.60;28.30
10883;DHT22;5494;51.796;10.952;2023-07-09T14:11:17;32.60;28.60
10883;DHT22;5494;51.796;10.952;2023-07-09T14:13:45;32.70;28.50
10883;DHT22;5494;51.796;10.952;2023-07-09T14:16:14;32.80;28.40
10883;DHT22;5494;51.796;10.952;2023-07-09T14:18:42;32.90;29.80
10883;DHT22;5494;51.796;10.952;2023-07-09T14:21:12;32.80;29.20
10883;DHT22;5494;51.796;10.952;2023-07-09T14:23:43;32.70;28.90
10883;DHT22;5494;51.796;10.952;2023-07-09T14:26:11;32.60;29.30
10883;DHT22;5494;51.796;10.952;2023-07-09T14:28:39;32.60;29.80
10883;DHT22;5494;51.796;10.952;2023-07-09T14:31:19;32.60;30.10
10883;DHT22;5494;51.796;10.952;2023-07-09T14:33:53;32.50;29.10
10883;DHT22;5494;51.796;10.952;2023-07-09T14:36:23;32.50;29.50
10883;DHT22;5494;51.796;10.952;2023-07-09T14:38:52;32.50;28.90
10883;DHT22;5494;51.796;10.952;2023-07-09T14:41:22;32.50;29.50
10883;DHT22;5494;51.796;10.952;2023-07-09T14:43:54;32.60;29.80
10883;DHT22;5494;51.796;10.952;2023-07-09T14:46:25;32.90;29.50
10883;DHT22;5494;51.796;10.952;2023-07-09T14:48:53;33.00;30.00
10883;DHT22;5494;51.796;10.952;2023-07-09T14:51:29;33.10;30.00
10883;DHT22;5494;51.796;10.952;2023-07-09T14:53:59;32.90;28.80
10883;DHT22;5494;51.796;10.952;2023-07-09T14:56:27;32.80;30.30
10883;DHT22;5494;51.796;10.952;2023-07-09T14:58:55;32.90;29.80
10883;DHT22;5494;51.796;10.952;2023-07-09T15:01:23;33.20;28.80
10883;DHT22;5494;51.796;10.952;2023-07-09T15:03:51;33.30;27.40
10883;DHT22;5494;51.796;10.952;2023-07-09T15:06:19;33.40;27.30
10883;DHT22;5494;51.796;10.952;2023-07-09T15:08:48;33.50;26.40
10883;DHT22;5494;51.796;10.952;2023-07-09T15:11:17;33.40;27.80
10883;DHT22;5494;51.796;10.952;2023-07-09T15:13:45;33.30;28.60
10883;DHT22;5494;51.796;10.952;2023-07-09T15:16:13;33.30;27.20
10883;DHT22;5494;51.796;10.952;2023-07-09T15:18:41;33.40;27.80
10883;DHT22;5494;51.796;10.952;2023-07-09T15:21:09;33.50;26.50
10883;DHT22;5494;51.796;10.952;2023-07-09T15:23:40;33.50;26.60
10883;DHT22;5494;51.796;10.952;2023-07-09T15:26:13;33.50;26.20
10883;DHT22;5494;51.796;10.952;2023-07-09T15:28:43;33.50;26.60
10883;DHT22;5494;51.796;10.952;2023-07-09T15:31:15;33.40;26.70
10883;DHT22;5494;51.796;10.952;2023-07-09T15:33:44;33.60;25.00
10883;DHT22;5494;51.796;10.952;2023-07-09T15:36:12;33.60;24.70
10883;DHT22;5494;51.796;10.952;2023-07-09T15:38:40;33.40;25.00
10883;DHT22;5494;51.796;10.952;2023-07-09T15:41:11;33.30;25.40
10883;DHT22;5494;51.796;10.952;2023-07-09T15:43:43;33.40;27.00
10883;DHT22;5494;51.796;10.952;2023-07-09T15:46:16;33.40;26.40
10883;DHT22;5494;51.796;10.952;2023-07-09T15:48:47;33.40;25.00
10883;DHT22;5494;51.796;10.952;2023-07-09T15:51:18;33.40;26.20
10883;DHT22;5494;51.796;10.952;2023-07-09T15:53:46;33.40;25.60
10883;DHT22;5494;51.796;10.952;2023-07-09T15:56:20;33.50;25.80